Time;durP1;ratioP1;P1;durP2;ratioP2;P2;SDS_P1;SDS_P2;PMS_P1;PMS_P2;Temp;Humidity;BMP_temperature;BMP_pressure;BME280_temperature;BME280_humidity;BME280_pressure;Samples;Min_cycle;Max_cycle;Signal;HPM_P1;HPM_P2
2022/12/30 04:02:38;;;;;;;0.43;0.40;;;12.80;52.80;;;;;;4847548;29;45692;-61
2022/12/30 04:05:06;;;;;;;0.40;0.30;;;12.80;52.80;;;;;;4855500;29;45070;-61
2022/12/30 04:07:32;;;;;;;0.40;0.40;;;12.80;52.80;;;;;;4871124;29;46797;-60
2022/12/30 04:09:57;;;;;;;0.28;0.28;;;12.80;52.80;;;;;;4877347;29;45464;-61
2022/12/30 04:12:23;;;;;;;0.40;0.30;;;12.80;52.80;;;;;;4871587;29;45234;-60
2022/12/30 04:14:48;;;;;;;0.40;0.40;;;12.80;52.80;;;;;;4872016;29;45329;-59
2022/12/30 04:17:14;;;;;;;0.38;0.32;;;12.80;52.80;;;;;;4874104;29;45170;-59
2022/12/30 04:19:39;;;;;;;0.30;0.30;;;12.80;52.80;;;;;;4873683;29;45276;-60
2022/12/30 04:22:05;;;;;;;0.45;0.35;;;12.80;52.80;;;;;;4875385;29;46033;-59
2022/12/30 04:24:30;;;;;;;0.43;0.40;;;12.80;52.80;;;;;;4876430;29;45286;-61
2022/12/30 04:26:56;;;;;;;0.82;0.30;;;12.80;52.90;;;;;;4867598;28;45132;-60
2022/12/30 04:29:21;;;;;;;0.30;0.30;;;12.80;52.80;;;;;;4873678;29;44971;-59
2022/12/30 04:31:47;;;;;;;0.40;0.30;;;12.80;52.80;;;;;;4870876;29;45047;-60
2022/12/30 04:34:14;;;;;;;0.45;0.32;;;12.80;52.80;;;;;;4875101;29;45557;-59
2022/12/30 04:36:40;;;;;;;0.50;0.50;;;12.80;52.80;;;;;;4873781;29;45649;-63
2022/12/30 04:39:06;;;;;;;0.55;0.47;;;12.80;52.80;;;;;;4856876;29;45667;-60
2022/12/30 04:41:31;;;;;;;0.30;0.30;;;12.80;52.80;;;;;;4877471;29;47392;-60
2022/12/30 04:43:57;;;;;;;0.30;0.30;;;12.80;52.80;;;;;;4871871;29;45420;-61
2022/12/30 04:46:23;;;;;;;0.30;0.30;;;12.80;52.80;;;;;;4871650;29;45125;-60
2022/12/30 04:48:49;;;;;;;0.38;0.30;;;12.80;52.80;;;;;;4872338;29;44811;-60
2022/12/30 04:51:14;;;;;;;0.88;0.35;;;12.80;52.80;;;;;;4878672;29;45479;-63
2022/12/30 04:53:40;;;;;;;0.30;0.30;;;12.80;52.80;;;;;;4876802;29;45112;-61
2022/12/30 04:56:05;;;;;;;0.40;0.40;;;12.80;52.80;;;;;;4879029;29;45209;-60
2022/12/30 04:58:31;;;;;;;0.52;0.47;;;12.80;52.70;;;;;;4876046;29;45530;-60
2022/12/30 05:00:56;;;;;;;0.40;0.40;;;12.80;52.80;;;;;;4873148;29;45174;-62
2022/12/30 05:03:22;;;;;;;0.43;0.38;;;12.70;52.70;;;;;;4875266;29;45308;-61
2022/12/30 05:05:48;;;;;;;0.88;0.40;;;12.80;52.80;;;;;;4879150;29;45275;-61
2022/12/30 05:08:13;;;;;;;0.35;0.35;;;12.80;52.80;;;;;;4881309;29;44667;-59
2022/12/30 05:10:39;;;;;;;0.30;0.30;;;12.80;52.80;;;;;;4877126;29;46758;-60
2022/12/30 05:13:05;;;;;;;0.50;0.30;;;12.80;52.80;;;;;;4879379;29;44671;-63
2022/12/30 05:15:31;;;;;;;0.40;0.30;;;12.80;52.80;;;;;;4878518;29;45599;-62
2022/12/30 05:17:56;;;;;;;0.52;0.30;;;12.80;52.80;;;;;;4862864;29;45735;-60
2022/12/30 05:20:22;;;;;;;0.22;0.22;;;12.80;52.80;;;;;;4875860;29;47068;-61
2022/12/30 05:22:48;;;;;;;0.47;0.40;;;12.80;52.80;;;;;;4870549;29;45395;-60
2022/12/30 05:27:57;;;;;;;0.47;0.30;;;12.80;52.80;;;;;;4877101;29;44998;-61
2022/12/30 05:30:23;;;;;;;0.47;0.40;;;12.80;52.80;;;;;;4870450;29;45138;-61
2022/12/30 05:32:48;;;;;;;0.52;0.30;;;12.80;52.80;;;;;;4875768;29;44934;-61
2022/12/30 05:35:14;;;;;;;0.30;0.30;;;12.80;52.80;;;;;;4873713;29;45667;-60
2022/12/30 05:37:40;;;;;;;0.43;0.30;;;12.80;52.90;;;;;;4871902;29;47893;-65
2022/12/30 05:40:06;;;;;;;0.20;0.20;;;12.80;52.80;;;;;;4872020;29;46019;-60
2022/12/30 05:42:31;;;;;;;0.47;0.40;;;12.80;53.40;;;;;;4877568;29;45052;-61
2022/12/30 05:44:57;;;;;;;0.30;0.30;;;12.80;52.90;;;;;;4876401;29;45266;-60
2022/12/30 05:47:22;;;;;;;0.30;0.30;;;12.80;52.80;;;;;;4873675;29;45581;-58
2022/12/30 05:49:48;;;;;;;0.20;0.20;;;12.80;52.80;;;;;;4872696;29;45555;-60
2022/12/30 05:52:14;;;;;;;0.32;0.30;;;12.80;52.80;;;;;;4875805;29;45302;-59
2022/12/30 05:54:40;;;;;;;0.65;0.50;;;12.80;52.80;;;;;;4879513;29;44878;-61
2022/12/30 05:57:06;;;;;;;0.57;0.40;;;12.80;52.80;;;;;;4854925;29;45449;-60
2022/12/30 05:59:32;;;;;;;0.40;0.40;;;12.80;52.80;;;;;;4877086;29;45025;-61
2022/12/30 06:01:57;;;;;;;0.50;0.43;;;12.80;52.90;;;;;;4876174;29;45890;-59
2022/12/30 06:04:23;;;;;;;0.52;0.45;;;12.80;52.80;;;;;;4876298;29;46714;-61
2022/12/30 06:06:48;;;;;;;0.50;0.40;;;12.80;52.80;;;;;;4861567;29;45395;-61
2022/12/30 06:09:14;;;;;;;0.65;0.47;;;12.80;52.90;;;;;;4872075;29;48233;-60
2022/12/30 06:11:39;;;;;;;0.75;0.40;;;12.80;52.80;;;;;;4873504;29;46495;-61
2022/12/30 06:14:05;;;;;;;0.40;0.40;;;12.80;52.90;;;;;;4874870;29;45364;-61
2022/12/30 06:16:30;;;;;;;0.50;0.30;;;12.80;52.80;;;;;;4872631;29;45391;-61
2022/12/30 06:18:56;;;;;;;0.30;0.30;;;12.80;52.90;;;;;;4870594;29;45997;-61
2022/12/30 06:21:22;;;;;;;0.38;0.35;;;12.80;52.90;;;;;;4873627;29;44641;-61
2022/12/30 06:23:47;;;;;;;0.30;0.30;;;12.80;52.90;;;;;;4868968;29;45571;-62
2022/12/30 06:26:13;;;;;;;0.30;0.30;;;12.70;52.80;;;;;;4871319;29;45619;-61
2022/12/30 06:28:39;;;;;;;0.32;0.30;;;12.80;52.80;;;;;;4873058;29;45358;-61
2022/12/30 06:31:04;;;;;;;0.32;0.30;;;12.80;52.90;;;;;;4872298;29;45315;-60
2022/12/30 06:33:30;;;;;;;0.60;0.30;;;12.80;52.80;;;;;;4875839;29;45408;-62
2022/12/30 06:35:55;;;;;;;1.33;0.40;;;12.80;52.90;;;;;;4872360;29;45208;-60
2022/12/30 06:38:21;;;;;;;0.40;0.30;;;12.80;52.90;;;;;;4867964;29;46057;-62
2022/12/30 06:40:47;;;;;;;0.30;0.20;;;12.80;52.90;;;;;;4873831;29;45302;-62
2022/12/30 06:43:12;;;;;;;0.50;0.50;;;12.80;52.90;;;;;;4873294;29;45042;-60
2022/12/30 06:45:38;;;;;;;0.28;0.28;;;12.80;52.90;;;;;;4873491;29;45605;-61
2022/12/30 06:48:04;;;;;;;0.60;0.20;;;12.80;52.80;;;;;;4875844;29;47242;-60
2022/12/30 06:50:29;;;;;;;0.22;0.22;;;12.80;52.90;;;;;;4874841;29;45338;-59
2022/12/30 06:52:55;;;;;;;0.47;0.40;;;12.80;52.90;;;;;;4870888;29;45061;-60
2022/12/30 06:55:21;;;;;;;0.30;0.30;;;12.80;52.90;;;;;;4874718;29;45182;-59
2022/12/30 06:57:48;;;;;;;0.43;0.32;;;12.80;52.80;;;;;;4872090;29;45440;-60
2022/12/30 07:00:14;;;;;;;0.40;0.40;;;12.80;52.80;;;;;;4869100;29;46441;-61
2022/12/30 07:02:39;;;;;;;0.57;0.40;;;12.80;52.90;;;;;;4870580;29;45205;-61
2022/12/30 07:05:05;;;;;;;0.40;0.40;;;12.80;52.90;;;;;;4876290;29;46100;-60
2022/12/30 07:07:31;;;;;;;0.63;0.57;;;12.80;52.90;;;;;;4876746;29;46001;-61
2022/12/30 07:09:57;;;;;;;0.63;0.40;;;12.80;52.90;;;;;;4872263;29;46270;-59
2022/12/30 07:12:22;;;;;;;0.35;0.30;;;12.80;52.90;;;;;;4877528;29;45407;-61
2022/12/30 07:14:48;;;;;;;0.63;0.50;;;12.80;52.90;;;;;;4871734;29;45308;-61
2022/12/30 07:17:13;;;;;;;1.27;0.50;;;12.80;52.90;;;;;;4880129;29;46782;-60
2022/12/30 07:19:39;;;;;;;0.50;0.47;;;12.80;53.00;;;;;;4875957;29;45215;-61
2022/12/30 07:22:05;;;;;;;0.50;0.40;;;12.80;52.90;;;;;;4870878;29;46519;-60
2022/12/30 07:24:30;;;;;;;0.35;0.35;;;12.80;52.90;;;;;;4875706;29;45728;-61
2022/12/30 07:26:56;;;;;;;0.43;0.30;;;12.80;52.90;;;;;;4874794;29;46837;-61
2022/12/30 07:29:21;;;;;;;0.32;0.32;;;12.80;53.00;;;;;;4876012;29;45513;-61
2022/12/30 07:31:47;;;;;;;0.30;0.20;;;12.80;53.00;;;;;;4872439;29;44720;-61
2022/12/30 07:34:12;;;;;;;0.85;0.43;;;12.80;53.00;;;;;;4873823;29;45487;-60
2022/12/30 07:36:38;;;;;;;0.80;0.35;;;12.80;53.00;;;;;;4874864;29;46129;-61
2022/12/30 07:39:03;;;;;;;0.40;0.35;;;12.80;52.90;;;;;;4866656;29;44691;-62
2022/12/30 07:41:29;;;;;;;0.40;0.30;;;12.80;52.90;;;;;;4870144;29;45408;-61
2022/12/30 07:43:55;;;;;;;0.45;0.32;;;12.80;52.90;;;;;;4872775;29;45249;-63
2022/12/30 07:46:20;;;;;;;0.50;0.30;;;12.80;52.90;;;;;;4873865;29;44943;-62
2022/12/30 07:48:46;;;;;;;0.63;0.50;;;12.80;53.00;;;;;;4877075;29;44911;-61
2022/12/30 07:51:13;;;;;;;0.70;0.50;;;12.80;52.90;;;;;;4867985;29;45477;-59
2022/12/30 07:53:39;;;;;;;0.40;0.40;;;12.80;52.90;;;;;;4871227;29;44693;-60
2022/12/30 07:56:06;;;;;;;0.30;0.30;;;12.80;52.90;;;;;;4874272;29;45274;-61
2022/12/30 07:58:31;;;;;;;0.40;0.40;;;12.80;52.90;;;;;;4871716;29;45152;-61
2022/12/30 08:00:57;;;;;;;0.40;0.40;;;12.70;52.90;;;;;;4852489;29;44990;-61
2022/12/30 08:03:22;;;;;;;0.60;0.47;;;12.70;52.90;;;;;;4853562;29;45786;-60
2022/12/30 08:05:48;;;;;;;0.40;0.38;;;12.80;53.00;;;;;;4874337;29;45355;-61
2022/12/30 08:08:14;;;;;;;0.70;0.40;;;12.80;53.00;;;;;;4874084;29;45049;-61
2022/12/30 08:10:39;;;;;;;0.50;0.45;;;12.80;52.90;;;;;;4871214;29;44746;-61
2022/12/30 08:13:05;;;;;;;0.35;0.20;;;12.80;52.90;;;;;;4866937;29;45189;-62
2022/12/30 08:15:30;;;;;;;0.47;0.40;;;12.80;52.90;;;;;;4878434;29;46866;-61
2022/12/30 08:17:56;;;;;;;0.28;0.25;;;12.80;53.00;;;;;;4874203;29;45381;-60
2022/12/30 08:20:22;;;;;;;0.35;0.35;;;12.80;53.00;;;;;;4879714;29;44859;-61
2022/12/30 08:22:47;;;;;;;0.57;0.47;;;12.80;53.00;;;;;;4879328;29;45438;-61
2022/12/30 08:25:13;;;;;;;0.40;0.30;;;12.80;52.90;;;;;;4876546;29;45363;-61
2022/12/30 08:27:38;;;;;;;0.30;0.30;;;12.80;52.90;;;;;;4878840;29;45154;-61
2022/12/30 08:30:04;;;;;;;0.22;0.22;;;12.80;52.90;;;;;;4875709;29;45232;-60
2022/12/30 08:32:30;;;;;;;0.47;0.30;;;12.80;52.90;;;;;;4864407;29;45836;-61
2022/12/30 08:34:55;;;;;;;0.50;0.40;;;12.80;52.90;;;;;;4873521;29;46502;-61
2022/12/30 08:37:21;;;;;;;0.80;0.40;;;12.80;53.00;;;;;;4874335;29;45179;-61
2022/12/30 08:39:46;;;;;;;0.52;0.40;;;12.80;53.00;;;;;;4873812;29;45355;-61
2022/12/30 08:42:12;;;;;;;0.30;0.30;;;12.80;53.00;;;;;;4873188;29;45248;-61
2022/12/30 08:44:37;;;;;;;1.02;0.52;;;12.80;53.00;;;;;;4874338;29;45953;-57
2022/12/30 08:47:03;;;;;;;0.80;0.40;;;12.80;52.90;;;;;;4873051;29;45737;-61
2022/12/30 08:49:29;;;;;;;0.30;0.30;;;12.80;52.90;;;;;;4875903;29;45307;-60
2022/12/30 08:51:54;;;;;;;0.80;0.40;;;12.80;52.90;;;;;;4873698;29;44830;-60
2022/12/30 08:54:20;;;;;;;0.47;0.40;;;12.80;52.90;;;;;;4871481;29;45364;-62
2022/12/30 08:56:47;;;;;;;0.35;0.35;;;12.80;52.90;;;;;;4860829;29;45076;-61
2022/12/30 08:59:12;;;;;;;0.95;0.50;;;12.80;52.90;;;;;;4877090;29;44703;-60
2022/12/30 09:01:40;;;;;;;0.30;0.30;;;12.80;52.80;;;;;;4875046;29;45381;-60
2022/12/30 09:04:07;;;;;;;0.60;0.30;;;12.80;52.90;;;;;;4872165;29;45646;-60
2022/12/30 09:06:34;;;;;;;0.40;0.40;;;12.80;52.90;;;;;;4869232;29;46669;-61
2022/12/30 09:08:59;;;;;;;0.70;0.50;;;12.80;52.80;;;;;;4875798;29;45044;-61
2022/12/30 09:11:29;;;;;;;0.40;0.40;;;12.90;52.70;;;;;;4875183;29;45869;-59
2022/12/30 09:13:54;;;;;;;0.32;0.30;;;12.80;52.70;;;;;;4864188;29;46167;-60
2022/12/30 09:16:23;;;;;;;0.63;0.40;;;12.90;52.70;;;;;;4877391;29;45033;-60
2022/12/30 09:18:49;;;;;;;0.45;0.40;;;12.90;52.60;;;;;;4880657;29;45137;-61
2022/12/30 09:21:15;;;;;;;0.38;0.30;;;12.90;52.60;;;;;;4862428;29;45665;-60
2022/12/30 09:23:41;;;;;;;1.42;0.50;;;12.90;52.70;;;;;;4877377;29;45965;-59
2022/12/30 09:26:08;;;;;;;0.50;0.40;;;12.90;52.70;;;;;;4860942;29;45405;-60
2022/12/30 09:28:34;;;;;;;0.60;0.60;;;12.90;52.80;;;;;;4877135;29;45240;-61
2022/12/30 09:30:59;;;;;;;0.60;0.45;;;12.90;52.80;;;;;;4862595;29;45154;-59
2022/12/30 09:33:25;;;;;;;0.45;0.38;;;12.80;52.80;;;;;;4880784;29;46180;-60
2022/12/30 09:35:50;;;;;;;0.70;0.40;;;12.80;52.80;;;;;;4874813;29;45741;-59
2022/12/30 09:38:17;;;;;;;0.88;0.50;;;12.90;52.80;;;;;;4876462;29;45444;-59
2022/12/30 09:40:51;;;;;;;0.55;0.35;;;12.90;52.80;;;;;;4873904;29;45652;-60
2022/12/30 09:43:40;;;;;;;0.77;0.50;;;12.90;52.80;;;;;;4876987;29;46086;-62
2022/12/30 09:46:14;;;;;;;0.30;0.30;;;12.90;52.80;;;;;;4843402;29;44887;-60
2022/12/30 09:49:19;;;;;;;0.40;0.40;;;12.90;52.80;;;;;;4873541;29;45050;-60
2022/12/30 09:51:47;;;;;;;0.40;0.30;;;12.90;52.70;;;;;;4845929;29;45183;-60
2022/12/30 09:54:14;;;;;;;0.40;0.35;;;12.90;52.70;;;;;;4873455;29;46111;-60
2022/12/30 09:56:42;;;;;;;0.40;0.40;;;12.90;52.70;;;;;;4861780;29;45237;-60
2022/12/30 09:59:35;;;;;;;0.65;0.50;;;12.90;52.80;;;;;;4876730;29;44752;-59
2022/12/30 10:02:22;;;;;;;0.60;0.40;;;12.90;52.70;;;;;;4874708;29;44947;-60
2022/12/30 10:04:47;;;;;;;0.45;0.40;;;12.90;52.80;;;;;;4876942;29;46208;-59
2022/12/30 10:07:33;;;;;;;0.40;0.40;;;12.90;52.70;;;;;;4848959;29;45771;-60
2022/12/30 10:10:13;;;;;;;0.30;0.30;;;12.90;52.80;;;;;;4866243;29;45397;-60
2022/12/30 10:12:51;;;;;;;0.90;0.50;;;12.90;52.80;;;;;;4878544;29;45262;-59
2022/12/30 10:15:39;;;;;;;0.40;0.40;;;13.00;52.80;;;;;;4871853;29;45235;-61
2022/12/30 10:18:10;;;;;;;0.52;0.43;;;13.00;52.80;;;;;;4870672;29;45425;-61
2022/12/30 10:20:47;;;;;;;0.30;0.30;;;12.90;52.80;;;;;;4881370;29;45460;-61
2022/12/30 10:23:28;;;;;;;0.40;0.38;;;13.00;52.80;;;;;;4874002;29;45475;-60
2022/12/30 10:26:14;;;;;;;0.40;0.20;;;13.00;52.80;;;;;;4878675;29;47208;-60
2022/12/30 10:28:56;;;;;;;0.38;0.32;;;13.00;52.80;;;;;;4878842;29;44997;-60
2022/12/30 10:31:23;;;;;;;0.30;0.30;;;13.00;52.90;;;;;;4863061;29;45474;-60
2022/12/30 10:33:49;;;;;;;0.40;0.40;;;13.00;52.80;;;;;;4870893;29;45623;-60
2022/12/30 10:36:32;;;;;;;0.68;0.50;;;13.00;52.80;;;;;;4862037;29;46144;-58
2022/12/30 10:39:05;;;;;;;0.55;0.40;;;13.00;52.70;;;;;;4859846;29;45641;-59
2022/12/30 10:41:40;;;;;;;0.47;0.47;;;13.00;52.70;;;;;;4842889;29;45269;-60
2022/12/30 10:44:30;;;;;;;0.40;0.30;;;13.00;52.70;;;;;;4861150;29;45649;-60
2022/12/30 10:47:28;;;;;;;0.40;0.40;;;13.00;52.70;;;;;;4867935;29;45979;-60
2022/12/30 10:50:03;;;;;;;0.55;0.40;;;13.10;52.60;;;;;;4878141;29;46865;-59
2022/12/30 10:52:29;;;;;;;0.68;0.47;;;13.00;52.60;;;;;;4876764;29;45319;-60
2022/12/30 10:54:55;;;;;;;0.93;0.40;;;13.10;52.60;;;;;;4860185;29;45260;-60
2022/12/30 10:57:32;;;;;;;0.63;0.38;;;13.10;52.60;;;;;;4872051;29;45128;-59
2022/12/30 10:59:58;;;;;;;0.35;0.30;;;13.10;52.50;;;;;;4858961;29;45475;-61
2022/12/30 11:02:33;;;;;;;0.55;0.30;;;13.10;52.50;;;;;;4875658;29;45410;-59
2022/12/30 11:05:01;;;;;;;0.30;0.30;;;13.10;52.60;;;;;;4873780;29;45216;-61
2022/12/30 11:07:26;;;;;;;0.30;0.30;;;13.10;52.60;;;;;;4861232;29;45582;-61
2022/12/30 11:09:52;;;;;;;0.30;0.20;;;13.10;52.60;;;;;;4868501;29;44964;-60
2022/12/30 11:15:22;;;;;;;0.40;0.40;;;13.10;52.60;;;;;;4875499;29;45194;-60
2022/12/30 11:17:57;;;;;;;0.30;0.30;;;13.10;52.70;;;;;;4856735;29;45519;-61
2022/12/30 11:20:29;;;;;;;0.32;0.30;;;13.10;52.70;;;;;;4879878;29;44647;-62
2022/12/30 11:22:55;;;;;;;0.65;0.30;;;13.10;52.70;;;;;;4859789;29;45441;-62
2022/12/30 11:25:37;;;;;;;0.30;0.30;;;13.10;52.70;;;;;;4859907;29;45488;-61
2022/12/30 11:28:05;;;;;;;0.40;0.40;;;13.10;52.80;;;;;;4872813;29;45927;-61
2022/12/30 11:30:58;;;;;;;0.40;0.30;;;13.10;52.80;;;;;;4877399;29;45468;-60
2022/12/30 11:33:25;;;;;;;0.47;0.43;;;13.10;52.70;;;;;;4869099;29;44849;-61
2022/12/30 11:35:51;;;;;;;0.40;0.30;;;13.10;52.70;;;;;;4864261;29;44753;-61
2022/12/30 11:38:35;;;;;;;0.85;0.52;;;13.10;52.70;;;;;;4874767;29;47190;-61
2022/12/30 11:41:16;;;;;;;0.30;0.30;;;13.10;52.70;;;;;;4873230;29;44984;-60
2022/12/30 11:43:43;;;;;;;0.40;0.40;;;13.10;52.70;;;;;;4878345;29;45179;-61
2022/12/30 11:46:10;;;;;;;0.47;0.43;;;13.10;52.70;;;;;;4880457;29;45113;-58
2022/12/30 11:48:52;;;;;;;0.28;0.28;;;13.10;52.70;;;;;;4877482;29;45445;-59
2022/12/30 11:51:27;;;;;;;0.73;0.30;;;13.20;52.80;;;;;;4872798;29;45192;-62
2022/12/30 11:54:05;;;;;;;0.43;0.40;;;13.10;52.70;;;;;;4875994;29;45828;-59
2022/12/30 11:56:30;;;;;;;0.68;0.40;;;13.20;52.80;;;;;;4870941;29;45263;-59
2022/12/30 11:58:58;;;;;;;0.30;0.30;;;13.10;52.70;;;;;;4876196;29;44935;-60
2022/12/30 12:01:23;;;;;;;0.50;0.30;;;13.20;52.70;;;;;;4861475;29;44757;-60
2022/12/30 12:03:54;;;;;;;0.40;0.40;;;13.20;52.70;;;;;;4847748;29;44662;-59
2022/12/30 12:06:20;;;;;;;0.40;0.40;;;13.20;52.70;;;;;;4873166;29;45254;-62
2022/12/30 12:09:05;;;;;;;0.40;0.40;;;13.20;52.60;;;;;;4875245;29;45982;-61
2022/12/30 12:11:35;;;;;;;0.28;0.20;;;13.20;52.50;;;;;;4882500;29;46246;-60
2022/12/30 12:14:07;;;;;;;0.40;0.40;;;13.20;52.60;;;;;;4879800;29;45391;-60
2022/12/30 12:16:37;;;;;;;0.50;0.35;;;13.20;52.60;;;;;;4865994;29;45273;-61
2022/12/30 12:19:24;;;;;;;0.40;0.40;;;13.20;52.60;;;;;;4870778;29;45293;-60
2022/12/30 12:21:51;;;;;;;0.85;0.47;;;13.30;52.60;;;;;;4863775;29;45262;-61
2022/12/30 12:24:22;;;;;;;0.35;0.30;;;13.20;52.50;;;;;;4878454;29;45193;-58
2022/12/30 12:26:57;;;;;;;0.70;0.50;;;13.30;52.60;;;;;;4860346;29;45498;-59
2022/12/30 12:29:23;;;;;;;0.47;0.47;;;13.30;52.60;;;;;;4872366;29;46019;-60
2022/12/30 12:32:25;;;;;;;0.40;0.40;;;13.30;52.60;;;;;;4873754;29;44951;-60
2022/12/30 12:35:06;;;;;;;0.40;0.40;;;13.30;52.50;;;;;;4874052;29;45214;-59
2022/12/30 12:38:28;;;;;;;0.20;0.20;;;13.30;52.60;;;;;;4876898;29;45350;-56
2022/12/30 12:41:01;;;;;;;0.52;0.30;;;13.30;52.50;;;;;;4835145;29;45448;-59
2022/12/30 12:43:37;;;;;;;0.20;0.20;;;13.30;52.50;;;;;;4834469;29;45601;-58
2022/12/30 12:46:24;;;;;;;0.20;0.20;;;13.30;52.50;;;;;;4857638;29;45485;-61
2022/12/30 12:49:09;;;;;;;0.25;0.20;;;13.30;52.50;;;;;;4879894;29;45195;-61
2022/12/30 12:52:07;;;;;;;0.43;0.40;;;13.30;52.60;;;;;;4875529;29;46034;-59
2022/12/30 12:54:47;;;;;;;0.40;0.20;;;13.30;52.50;;;;;;4866874;29;45639;-60
2022/12/30 12:57:31;;;;;;;0.63;0.50;;;13.30;52.50;;;;;;4871505;29;45200;-59
2022/12/30 13:00:08;;;;;;;0.30;0.30;;;13.30;52.50;;;;;;4874836;29;45228;-62
2022/12/30 13:03:09;;;;;;;0.47;0.43;;;13.30;52.50;;;;;;4877453;29;45915;-59
2022/12/30 13:05:42;;;;;;;0.57;0.40;;;13.30;52.60;;;;;;4878255;29;45481;-60
2022/12/30 13:08:26;;;;;;;0.30;0.30;;;13.30;52.70;;;;;;4880022;29;46054;-61
2022/12/30 13:10:58;;;;;;;;;;;13.30;52.60;;;;;;4877247;29;45728;-60
2022/12/30 13:13:39;;;;;;;0.70;0.28;;;13.20;52.70;;;;;;4875091;29;45370;-61
2022/12/30 13:16:14;;;;;;;0.30;0.20;;;13.20;52.70;;;;;;4863204;29;45233;-61
2022/12/30 13:18:42;;;;;;;0.30;0.20;;;13.30;52.80;;;;;;4870684;29;45317;-60
2022/12/30 13:21:09;;;;;;;0.43;0.40;;;13.20;52.80;;;;;;4876030;29;45287;-61
2022/12/30 13:23:44;;;;;;;0.30;0.30;;;13.20;52.80;;;;;;4857092;29;46390;-59
2022/12/30 13:26:09;;;;;;;0.40;0.40;;;13.20;52.80;;;;;;4874598;29;45077;-61
2022/12/30 13:28:35;;;;;;;0.45;0.45;;;13.20;52.80;;;;;;4874641;29;45250;-59
2022/12/30 13:31:35;;;;;;;0.50;0.28;;;13.20;52.90;;;;;;4861141;29;45272;-60
2022/12/30 13:34:18;;;;;;;0.38;0.30;;;13.20;52.90;;;;;;4874923;29;46134;-59
2022/12/30 13:37:08;;;;;;;0.50;0.25;;;13.20;52.80;;;;;;4878343;29;45132;-61
2022/12/30 13:39:49;;;;;;;0.20;0.20;;;13.20;52.80;;;;;;4868517;28;45395;-60
2022/12/30 13:42:20;;;;;;;0.20;0.20;;;13.20;52.80;;;;;;4879215;29;45792;-60
2022/12/30 13:44:47;;;;;;;0.20;0.20;;;13.20;52.80;;;;;;4876303;29;46061;-60
2022/12/30 13:47:26;;;;;;;0.52;0.40;;;13.20;52.70;;;;;;4862961;29;45061;-61
2022/12/30 13:49:51;;;;;;;0.32;0.30;;;13.30;52.80;;;;;;4873058;29;44717;-61
2022/12/30 13:52:24;;;;;;;0.50;0.30;;;13.20;52.80;;;;;;4881444;29;44875;-60
2022/12/30 13:54:51;;;;;;;0.60;0.57;;;13.20;52.90;;;;;;4862555;29;45216;-59
2022/12/30 13:57:34;;;;;;;0.40;0.38;;;13.20;52.80;;;;;;4842041;29;45242;-59
2022/12/30 14:00:18;;;;;;;0.60;0.40;;;13.20;52.80;;;;;;4870696;29;45236;-59
2022/12/30 14:03:03;;;;;;;0.20;0.20;;;13.30;52.90;;;;;;4872588;29;45265;-61
2022/12/30 14:05:34;;;;;;;0.20;0.20;;;13.30;52.90;;;;;;4875090;29;45165;-61
2022/12/30 14:08:00;;;;;;;0.30;0.30;;;13.20;52.90;;;;;;4873064;29;45365;-60
2022/12/30 14:10:40;;;;;;;0.30;0.30;;;13.20;52.90;;;;;;4874016;29;45313;-60
2022/12/30 14:13:16;;;;;;;0.28;0.28;;;13.20;52.90;;;;;;4878473;29;45429;-59
2022/12/30 14:15:42;;;;;;;0.50;0.40;;;13.20;52.90;;;;;;4878634;29;47208;-60
2022/12/30 14:18:16;;;;;;;0.40;0.30;;;13.20;52.90;;;;;;4873179;29;45220;-59
2022/12/30 14:20:42;;;;;;;0.47;0.40;;;13.20;52.90;;;;;;4878962;29;45172;-61
2022/12/30 14:23:46;;;;;;;0.50;0.40;;;13.20;52.90;;;;;;4853246;29;45399;-59
2022/12/30 14:26:18;;;;;;;0.50;0.40;;;13.20;53.00;;;;;;4872374;29;45892;-61
2022/12/30 14:29:24;;;;;;;0.50;0.50;;;13.20;52.90;;;;;;4874649;29;45660;-61
2022/12/30 14:31:51;;;;;;;0.25;0.25;;;13.20;53.00;;;;;;4872422;29;45352;-59
2022/12/30 14:34:39;;;;;;;0.40;0.40;;;13.20;52.90;;;;;;4855081;29;44886;-59
2022/12/30 14:37:20;;;;;;;0.30;0.30;;;13.30;53.00;;;;;;4863042;29;46163;-57
2022/12/30 14:39:45;;;;;;;0.20;0.20;;;13.20;52.90;;;;;;4859194;29;45464;-59
2022/12/30 14:42:26;;;;;;;0.30;0.30;;;13.20;52.90;;;;;;4873862;29;45246;-59
2022/12/30 14:44:58;;;;;;;0.30;0.30;;;13.20;52.90;;;;;;4859799;29;44702;-58
2022/12/30 14:47:38;;;;;;;0.30;0.30;;;13.30;53.00;;;;;;4877220;29;46245;-59
2022/12/30 14:50:04;;;;;;;0.60;0.50;;;13.20;53.00;;;;;;4877360;29;44939;-59
2022/12/30 14:52:30;;;;;;;1.02;0.30;;;13.20;53.00;;;;;;4874479;29;45574;-61
2022/12/30 14:55:13;;;;;;;0.25;0.25;;;13.20;53.00;;;;;;4880062;29;45164;-60
2022/12/30 14:57:41;;;;;;;0.20;0.20;;;13.20;53.00;;;;;;4877386;29;46982;-61
2022/12/30 15:00:14;;;;;;;0.20;0.20;;;13.20;53.00;;;;;;4874908;29;44640;-59
2022/12/30 15:02:46;;;;;;;;;;;13.20;53.00;;;;;;4875950;29;45288;-59
2022/12/30 15:05:20;;;;;;;0.40;0.30;;;13.20;53.10;;;;;;4874501;29;45343;-58
2022/12/30 15:07:48;;;;;;;0.22;0.22;;;13.20;53.10;;;;;;4878114;29;46842;-60
2022/12/30 15:10:31;;;;;;;0.55;0.32;;;13.20;53.00;;;;;;4857774;29;45358;-59
2022/12/30 15:13:37;;;;;;;0.20;0.20;;;13.20;53.00;;;;;;4872538;29;45466;-59
2022/12/30 15:16:04;;;;;;;0.52;0.38;;;13.20;53.00;;;;;;4879400;29;44931;-56
2022/12/30 15:18:37;;;;;;;0.47;0.40;;;13.20;53.00;;;;;;4868071;29;46287;-61
2022/12/30 15:21:33;;;;;;;0.50;0.40;;;13.20;53.10;;;;;;4851270;29;44996;-60
2022/12/30 15:23:58;;;;;;;0.45;0.40;;;13.20;53.10;;;;;;4857794;29;45524;-60
2022/12/30 15:26:24;;;;;;;0.40;0.32;;;13.20;53.00;;;;;;4873908;29;44854;-57
2022/12/30 15:28:51;;;;;;;0.60;0.50;;;13.20;53.00;;;;;;4874282;29;46699;-58
2022/12/30 15:31:18;;;;;;;0.40;0.40;;;13.20;53.00;;;;;;4854054;29;45373;-59
2022/12/30 15:33:54;;;;;;;0.20;0.20;;;13.20;53.00;;;;;;4871715;29;44711;-61
2022/12/30 15:36:20;;;;;;;0.50;0.43;;;13.20;53.00;;;;;;4870697;29;45135;-61
2022/12/30 15:38:46;;;;;;;0.22;0.20;;;13.20;53.00;;;;;;4843205;29;45569;-59
2022/12/30 15:41:11;;;;;;;0.40;0.30;;;13.20;53.10;;;;;;4837920;29;45769;-61
2022/12/30 15:43:37;;;;;;;0.68;0.40;;;13.20;53.10;;;;;;4876029;29;45337;-61
2022/12/30 15:46:04;;;;;;;0.35;0.30;;;13.20;53.10;;;;;;4856818;29;45572;-59
2022/12/30 15:48:39;;;;;;;0.40;0.40;;;13.20;53.10;;;;;;4873361;29;45838;-60
2022/12/30 15:51:19;;;;;;;0.32;0.32;;;13.20;53.10;;;;;;4875008;29;45574;-59
2022/12/30 15:53:55;;;;;;;0.40;0.30;;;13.20;53.20;;;;;;4854070;29;45129;-61
2022/12/30 15:56:26;;;;;;;0.28;0.20;;;13.20;53.10;;;;;;4856894;29;45265;-60
2022/12/30 15:58:54;;;;;;;0.40;0.30;;;13.20;53.10;;;;;;4861600;29;45545;-60
2022/12/30 16:01:33;;;;;;;0.32;0.32;;;13.20;53.20;;;;;;4872262;29;45329;-60
2022/12/30 16:04:12;;;;;;;0.73;0.50;;;13.10;53.10;;;;;;4874249;29;44943;-59
2022/12/30 16:06:42;;;;;;;0.28;0.20;;;13.10;53.10;;;;;;4868759;29;45582;-57
2022/12/30 16:09:46;;;;;;;0.20;0.20;;;13.10;53.10;;;;;;4858243;29;46121;-61
2022/12/30 16:12:41;;;;;;;0.40;0.32;;;13.10;53.10;;;;;;4871395;29;45197;-62
2022/12/30 16:15:28;;;;;;;0.65;0.43;;;13.10;53.10;;;;;;4856257;29;45450;-60
2022/12/30 16:17:56;;;;;;;0.38;0.30;;;13.20;53.20;;;;;;4868792;29;45479;-59
2022/12/30 16:20:43;;;;;;;0.30;0.30;;;13.20;53.20;;;;;;4874000;29;45170;-60
2022/12/30 16:23:16;;;;;;;0.30;0.30;;;13.10;53.10;;;;;;4870253;29;45125;-60
2022/12/30 16:25:41;;;;;;;;;;;13.20;53.20;;;;;;4867103;29;45471;-61
2022/12/30 16:28:29;;;;;;;0.30;0.30;;;13.10;53.20;;;;;;4873940;29;45359;-61
2022/12/30 16:30:54;;;;;;;0.30;0.30;;;13.10;53.20;;;;;;4870814;29;45903;-59
2022/12/30 16:33:20;;;;;;;0.35;0.35;;;13.10;53.10;;;;;;4871167;29;45418;-59
2022/12/30 16:35:52;;;;;;;0.70;0.50;;;13.10;53.10;;;;;;4875770;29;45298;-59
2022/12/30 16:38:18;;;;;;;0.35;0.30;;;13.10;53.10;;;;;;4873698;29;45786;-60
2022/12/30 16:40:43;;;;;;;0.50;0.35;;;13.10;53.10;;;;;;4859907;29;46238;-59
2022/12/30 16:43:14;;;;;;;0.35;0.35;;;13.10;53.20;;;;;;4876647;29;45293;-60
2022/12/30 16:45:40;;;;;;;0.50;0.30;;;13.10;53.10;;;;;;4875709;29;45014;-58
2022/12/30 16:48:06;;;;;;;0.35;0.35;;;13.10;53.20;;;;;;4872057;29;45947;-61
2022/12/30 16:50:32;;;;;;;0.30;0.20;;;13.10;53.20;;;;;;4873660;29;45653;-60
2022/12/30 16:52:57;;;;;;;0.55;0.45;;;13.10;53.20;;;;;;4875668;29;45259;-61
2022/12/30 16:55:23;;;;;;;0.47;0.40;;;13.10;53.20;;;;;;4877975;29;45677;-60
2022/12/30 16:57:48;;;;;;;0.45;0.20;;;13.10;53.20;;;;;;4875317;29;45340;-60
2022/12/30 17:00:22;;;;;;;0.30;0.30;;;13.10;53.20;;;;;;4872872;29;46090;-59
2022/12/30 17:02:48;;;;;;;0.60;0.40;;;13.10;53.20;;;;;;4873354;29;44709;-61
2022/12/30 17:05:15;;;;;;;0.63;0.50;;;13.10;53.20;;;;;;4876853;29;46041;-61
2022/12/30 17:07:40;;;;;;;0.43;0.35;;;13.10;53.20;;;;;;4876183;29;45729;-59
2022/12/30 17:12:50;;;;;;;0.47;0.30;;;13.10;53.20;;;;;;4878735;29;45172;-60
2022/12/30 17:15:17;;;;;;;0.30;0.30;;;13.10;53.20;;;;;;4871823;29;45556;-61
2022/12/30 17:17:43;;;;;;;0.47;0.47;;;13.10;53.20;;;;;;4878834;29;45193;-61